Terminal Aerodrome Forecast
Issued by NWS

Home | Current Version | Previous Version | Text Only | Print | Product List | Glossary Off
Versions: 1 2 3 4 5 6 7 8 9 10 11 12

000
FTUS43 KMPX 310520
TAFRWF
TAF
KRWF 310520Z 3106/0106 30007KT P6SM FEW070
     FM311800 32009KT P6SM BKN090
     FM312300 35005KT P6SM SCT090 BKN250
     FM010300 12008KT P6SM BKN250=

USA.gov is the U.S. government's official web portal to all federal, state and local government web resources and services.